Time;durP1;ratioP1;P1;durP2;ratioP2;P2;SDS_P1;SDS_P2;PMS_P1;PMS_P2;Temp;Humidity;BMP_temperature;BMP_pressure;BME280_temperature;BME280_humidity;BME280_pressure;Samples;Min_cycle;Max_cycle;Signal;HPM_P1;HPM_P2
2021/12/31 00:01:48;;;;;;;9.88;6.60;;;;;;;13.22;100.00;100657.97;5219052;28;20103;-80
2021/12/31 00:04:18;;;;;;;9.88;7.32;;;;;;;13.22;100.00;100651.88;5220167;28;20033;-80
2021/12/31 00:06:48;;;;;;;9.07;6.90;;;;;;;13.26;100.00;100663.94;5219829;28;20039;-80
2021/12/31 00:09:19;;;;;;;12.48;7.45;;;;;;;13.21;100.00;100668.53;5218060;28;20279;-78
2021/12/31 00:11:49;;;;;;;12.07;7.38;;;;;;;13.20;100.00;100666.84;5219082;28;20107;-77
2021/12/31 00:14:21;;;;;;;8.90;6.53;;;;;;;13.24;100.00;100665.78;5218950;28;20035;-80
2021/12/31 00:16:51;;;;;;;10.80;6.10;;;;;;;13.24;100.00;100663.16;5217144;28;20029;-79
2021/12/31 00:19:22;;;;;;;9.17;6.57;;;;;;;13.31;100.00;100672.44;5217559;28;20060;-79
2021/12/31 00:21:52;;;;;;;10.00;5.95;;;;;;;13.21;100.00;100671.16;5212266;28;20288;-79
2021/12/31 00:24:25;;;;;;;7.93;5.32;;;;;;;13.27;100.00;100668.25;5211389;28;20640;-79
2021/12/31 00:26:55;;;;;;;9.20;6.45;;;;;;;13.28;100.00;100680.47;5222873;28;20782;-80
2021/12/31 00:29:26;;;;;;;8.10;6.00;;;;;;;13.25;100.00;100676.19;5222343;28;20416;-82
2021/12/31 00:31:56;;;;;;;5.65;4.53;;;;;;;13.28;100.00;100668.19;5220648;28;20154;-78
2021/12/31 00:34:26;;;;;;;5.90;5.13;;;;;;;13.27;100.00;100666.47;5218076;28;20071;-79
2021/12/31 00:36:57;;;;;;;6.20;5.22;;;;;;;13.27;100.00;100674.34;5219284;28;20040;-79
2021/12/31 00:39:27;;;;;;;5.60;5.00;;;;;;;13.18;100.00;100671.28;5219269;28;20020;-79
2021/12/31 00:41:57;;;;;;;6.65;5.28;;;;;;;13.18;100.00;100676.53;5219315;28;20036;-79
2021/12/31 00:44:27;;;;;;;8.40;5.60;;;;;;;13.08;100.00;100670.84;5218759;28;20144;-79
2021/12/31 00:46:57;;;;;;;5.70;4.72;;;;;;;13.03;100.00;100677.22;5214818;28;20318;-79
2021/12/31 00:49:28;;;;;;;6.63;5.40;;;;;;;13.06;100.00;100683.19;5214302;28;20562;-79
2021/12/31 00:51:58;;;;;;;6.80;5.60;;;;;;;13.01;100.00;100679.91;5213926;28;20879;-79
2021/12/31 00:54:28;;;;;;;7.30;5.53;;;;;;;13.02;100.00;100676.38;5217784;28;20056;-79
2021/12/31 00:57:02;;;;;;;8.00;5.77;;;;;;;13.04;100.00;100681.56;5218142;28;20275;-79
2021/12/31 00:59:34;;;;;;;7.88;5.88;;;;;;;12.99;100.00;100683.50;5213722;28;20304;-79
2021/12/31 01:02:05;;;;;;;7.03;5.05;;;;;;;13.07;100.00;100682.25;5217854;28;20060;-79
2021/12/31 01:04:35;;;;;;;6.15;4.43;;;;;;;13.10;100.00;100679.50;5216896;28;20124;-79
2021/12/31 01:07:06;;;;;;;5.22;4.38;;;;;;;13.10;100.00;100674.25;5188972;28;20120;-79
2021/12/31 01:09:36;;;;;;;5.85;4.40;;;;;;;13.14;100.00;100677.59;5223203;28;20028;-79
2021/12/31 01:12:10;;;;;;;5.88;4.20;;;;;;;13.10;100.00;100673.41;5211619;28;20043;-79
2021/12/31 01:14:53;;;;;;;5.90;4.10;;;;;;;13.08;100.00;100680.50;5207618;28;20028;-79
2021/12/31 01:17:43;;;;;;;6.43;3.83;;;;;;;13.10;100.00;100673.41;5219323;28;20399;-81
2021/12/31 01:20:15;;;;;;;5.45;3.90;;;;;;;12.99;100.00;100681.75;5210299;28;20030;-78
2021/12/31 01:22:46;;;;;;;7.15;3.78;;;;;;;13.04;100.00;100676.31;5219469;28;20513;-79
2021/12/31 01:25:16;;;;;;;4.80;3.83;;;;;;;12.97;100.00;100685.34;5208894;28;20029;-79
2021/12/31 01:27:47;;;;;;;4.47;3.35;;;;;;;13.00;100.00;100693.09;5220252;28;20475;-78
2021/12/31 01:30:19;;;;;;;5.63;3.40;;;;;;;13.05;100.00;100683.25;5220085;28;20470;-79
2021/12/31 01:32:49;;;;;;;5.75;3.17;;;;;;;13.10;100.00;100683.91;5211000;28;20112;-78
2021/12/31 01:35:19;;;;;;;4.85;3.40;;;;;;;13.08;100.00;100685.75;5211339;28;20025;-79
2021/12/31 01:37:50;;;;;;;5.07;3.20;;;;;;;13.15;100.00;100681.91;5220564;28;20432;-79
2021/12/31 01:40:20;;;;;;;3.37;2.90;;;;;;;13.16;100.00;100678.38;5219734;28;20618;-78
2021/12/31 01:42:52;;;;;;;3.83;2.83;;;;;;;13.22;100.00;100683.38;5197798;28;20317;-78
2021/12/31 01:45:23;;;;;;;4.57;2.67;;;;;;;13.25;100.00;100681.44;5222580;28;20112;-78
2021/12/31 01:50:27;;;;;;;3.13;2.17;;;;;;;13.33;100.00;100688.97;5211496;28;20116;-79
2021/12/31 01:52:59;;;;;;;3.92;1.92;;;;;;;13.35;100.00;100685.38;5223070;28;20287;-80
2021/12/31 01:55:32;;;;;;;3.53;1.70;;;;;;;13.25;100.00;100686.69;5203123;28;20052;-78
2021/12/31 01:58:03;;;;;;;2.75;1.70;;;;;;;13.28;100.00;100683.97;5221378;28;20069;-79
2021/12/31 02:00:34;;;;;;;2.30;2.00;;;;;;;13.16;100.00;100694.97;5221819;28;20464;-80
2021/12/31 02:03:06;;;;;;;3.65;2.08;;;;;;;13.06;100.00;100698.09;5215308;28;20064;-80
2021/12/31 02:05:38;;;;;;;4.10;2.40;;;;;;;13.05;100.00;100707.72;5213508;28;20035;-80
2021/12/31 02:08:08;;;;;;;2.38;2.10;;;;;;;13.02;100.00;100701.75;5221272;28;20657;-79
2021/12/31 02:10:39;;;;;;;4.07;2.60;;;;;;;13.00;100.00;100714.06;5222665;28;20127;-80
2021/12/31 02:13:10;;;;;;;3.35;2.50;;;;;;;13.04;100.00;100705.19;5222010;28;20272;-79
2021/12/31 02:15:40;;;;;;;4.25;2.47;;;;;;;13.05;100.00;100707.72;5220012;28;20096;-80
2021/12/31 02:18:11;;;;;;;3.30;2.35;;;;;;;13.10;100.00;100699.66;5203732;28;20120;-80
2021/12/31 02:20:46;;;;;;;4.07;2.63;;;;;;;13.03;100.00;100699.06;5210844;28;20029;-80
2021/12/31 02:23:19;;;;;;;3.53;2.37;;;;;;;13.05;100.00;100691.13;5208000;28;20379;-81
2021/12/31 02:25:51;;;;;;;5.97;2.55;;;;;;;12.97;100.00;100695.84;5217440;28;20079;-78
2021/12/31 02:28:21;;;;;;;5.70;2.55;;;;;;;12.89;100.00;100695.31;5218098;28;20032;-78
2021/12/31 02:30:54;;;;;;;2.72;2.42;;;;;;;12.87;100.00;100694.53;5217561;28;20520;-78
2021/12/31 02:33:25;;;;;;;5.13;2.70;;;;;;;12.87;100.00;100698.91;5218815;28;20057;-81
2021/12/31 02:35:55;;;;;;;4.32;2.80;;;;;;;12.88;100.00;100699.69;5218382;28;20171;-80
2021/12/31 02:38:25;;;;;;;4.82;2.63;;;;;;;12.89;100.00;100706.63;5216759;28;20036;-79
2021/12/31 02:40:56;;;;;;;3.83;2.70;;;;;;;12.97;100.00;100695.00;5200058;28;20044;-78
2021/12/31 02:43:26;;;;;;;4.65;3.20;;;;;;;13.00;100.00;100701.81;5219963;28;20040;-78
2021/12/31 02:45:56;;;;;;;3.30;2.60;;;;;;;12.97;100.00;100698.47;5218648;28;20051;-78
2021/12/31 02:48:27;;;;;;;3.92;2.80;;;;;;;12.82;100.00;100699.09;5232120;28;20029;-78
2021/12/31 02:50:59;;;;;;;3.08;2.78;;;;;;;12.93;100.00;100702.16;5233221;28;20067;-79
2021/12/31 02:53:41;;;;;;;4.28;3.00;;;;;;;12.83;100.00;100698.16;5230453;28;20028;-80
2021/12/31 02:56:14;;;;;;;4.72;2.92;;;;;;;12.89;100.00;100708.41;5232179;28;20491;-80
2021/12/31 02:58:45;;;;;;;3.72;2.80;;;;;;;12.87;100.00;100707.63;5226727;28;20028;-79
2021/12/31 03:01:15;;;;;;;3.42;2.90;;;;;;;12.76;100.00;100704.59;5228011;28;20021;-78
2021/12/31 03:03:48;;;;;;;4.68;2.83;;;;;;;12.77;100.00;100698.44;5226883;28;20483;-81
2021/12/31 03:06:19;;;;;;;5.75;3.20;;;;;;;12.87;100.00;100701.53;5226485;28;20021;-79
2021/12/31 03:08:52;;;;;;;4.68;3.33;;;;;;;12.82;100.00;100714.81;5224114;28;20268;-79
2021/12/31 03:11:23;;;;;;;4.65;3.60;;;;;;;12.77;100.00;100713.34;5227612;28;20473;-79
2021/12/31 03:13:54;;;;;;;6.15;3.17;;;;;;;12.72;100.00;100712.66;5225939;28;20040;-80
2021/12/31 03:16:25;;;;;;;5.07;3.33;;;;;;;12.76;100.00;100701.97;5219798;28;20036;-81
2021/12/31 03:18:56;;;;;;;6.55;3.63;;;;;;;12.71;100.00;100701.34;5218473;28;20037;-81
2021/12/31 03:21:26;;;;;;;4.25;3.85;;;;;;;12.58;100.00;100705.38;5211302;28;20120;-79
2021/12/31 03:23:58;;;;;;;5.45;4.10;;;;;;;12.57;100.00;100701.06;5219331;28;20554;-80
2021/12/31 03:26:28;;;;;;;4.72;3.70;;;;;;;12.56;100.00;100701.97;5220092;28;20494;-80
2021/12/31 03:28:58;;;;;;;5.50;3.85;;;;;;;12.48;100.00;100698.81;5224693;28;20086;-80
2021/12/31 03:31:29;;;;;;;5.45;3.63;;;;;;;12.43;100.00;100695.53;5225111;28;20021;-81
2021/12/31 03:33:59;;;;;;;6.68;5.00;;;;;;;12.37;100.00;100698.41;5224388;28;20124;-81
2021/12/31 03:36:30;;;;;;;4.97;4.05;;;;;;;12.30;100.00;100683.81;5224570;28;20024;-80
2021/12/31 03:39:00;;;;;;;7.47;3.58;;;;;;;12.24;100.00;100680.59;5224432;28;20037;-80
2021/12/31 03:41:31;;;;;;;5.50;3.38;;;;;;;12.30;100.00;100678.59;5206470;28;20033;-80
2021/12/31 03:44:03;;;;;;;4.70;2.78;;;;;;;12.36;100.00;100682.72;5206460;28;20029;-81
2021/12/31 03:46:33;;;;;;;6.05;2.80;;;;;;;12.44;100.00;100681.50;5224201;28;20044;-80
2021/12/31 03:49:03;;;;;;;5.78;2.63;;;;;;;12.46;100.00;100674.41;5221707;28;20029;-79
2021/12/31 03:51:33;;;;;;;3.17;2.50;;;;;;;12.51;100.00;100680.34;5220071;28;20040;-79
2021/12/31 03:54:04;;;;;;;5.57;2.50;;;;;;;12.57;100.00;100676.59;5227425;28;20327;-79
2021/12/31 03:56:34;;;;;;;3.60;2.47;;;;;;;12.54;100.00;100677.59;5232149;28;20033;-78
2021/12/31 03:59:05;;;;;;;3.17;2.40;;;;;;;12.60;100.00;100663.38;5230104;28;20486;-79
2021/12/31 04:01:35;;;;;;;3.53;2.25;;;;;;;12.70;100.00;100672.53;5231946;28;20086;-79
2021/12/31 04:04:07;;;;;;;7.37;3.40;;;;;;;12.64;100.00;100668.41;5230277;28;20025;-79
2021/12/31 04:06:38;;;;;;;5.05;2.40;;;;;;;12.71;100.00;100672.50;5230159;28;20298;-80
2021/12/31 04:09:08;;;;;;;3.92;2.25;;;;;;;12.76;100.00;100670.50;5231693;28;20059;-78
2021/12/31 04:11:38;;;;;;;3.90;2.50;;;;;;;12.66;100.00;100671.81;5206739;28;20029;-78
2021/12/31 04:14:09;;;;;;;4.07;2.80;;;;;;;12.77;100.00;100679.25;5221624;28;20097;-79
2021/12/31 04:16:39;;;;;;;3.85;2.30;;;;;;;12.70;100.00;100672.53;5224915;28;20030;-79
2021/12/31 04:19:10;;;;;;;4.20;2.60;;;;;;;12.69;100.00;100684.81;5227460;28;20163;-78
2021/12/31 04:21:42;;;;;;;4.15;2.47;;;;;;;12.67;100.00;100678.75;5228302;28;20036;-79
2021/12/31 04:24:27;;;;;;;4.60;2.80;;;;;;;12.64;100.00;100684.13;5229379;28;20055;-79
2021/12/31 04:26:58;;;;;;;7.60;3.00;;;;;;;12.72;100.00;100681.19;5228893;28;20111;-79
2021/12/31 04:29:28;;;;;;;3.97;2.60;;;;;;;12.70;100.00;100683.03;5230909;28;20087;-80
2021/12/31 04:32:00;;;;;;;5.32;2.72;;;;;;;12.69;100.00;100676.94;5230113;28;20032;-80
2021/12/31 04:34:31;;;;;;;3.20;2.47;;;;;;;12.74;100.00;100680.22;5230119;28;20135;-79
2021/12/31 04:37:01;;;;;;;6.47;2.65;;;;;;;12.79;100.00;100670.38;5228612;28;20514;-80
2021/12/31 04:39:32;;;;;;;4.68;2.67;;;;;;;12.84;100.00;100671.03;5228533;28;20069;-80
2021/12/31 04:42:03;;;;;;;6.10;2.60;;;;;;;12.81;100.00;100668.53;5229462;28;20037;-79
2021/12/31 04:44:33;;;;;;;6.72;3.05;;;;;;;12.86;100.00;100663.97;5227802;28;20036;-79
2021/12/31 04:47:04;;;;;;;3.40;2.60;;;;;;;12.86;100.00;100665.72;5224344;28;20043;-80
2021/12/31 04:49:34;;;;;;;6.20;3.00;;;;;;;12.95;100.00;100665.38;5225307;28;20264;-80
2021/12/31 04:52:05;;;;;;;5.18;2.88;;;;;;;12.85;100.00;100666.63;5226693;28;20028;-79
2021/12/31 04:54:35;;;;;;;4.63;2.88;;;;;;;12.88;100.00;100664.75;5229422;28;20055;-80
2021/12/31 04:57:05;;;;;;;4.68;2.75;;;;;;;13.06;100.00;100648.22;5229248;28;20089;-80
2021/12/31 04:59:36;;;;;;;5.88;3.10;;;;;;;13.03;100.00;100659.69;5211362;28;20063;-78
2021/12/31 05:02:06;;;;;;;5.85;2.95;;;;;;;12.97;100.00;100660.91;5228208;28;20025;-79
2021/12/31 05:04:36;;;;;;;5.20;2.80;;;;;;;13.06;100.00;100649.06;5228754;28;20033;-78
2021/12/31 05:07:06;;;;;;;6.13;2.85;;;;;;;12.97;100.00;100646.00;5229021;28;20052;-78
2021/12/31 05:09:37;;;;;;;7.18;2.72;;;;;;;12.98;100.00;100661.69;5211137;28;20498;-79
2021/12/31 05:12:13;;;;;;;4.65;3.03;;;;;;;12.94;100.00;100640.88;5226774;28;20100;-79
2021/12/31 05:14:45;;;;;;;4.55;2.60;;;;;;;12.96;100.00;100644.28;5208866;28;20418;-80
2021/12/31 05:17:15;;;;;;;7.15;2.40;;;;;;;12.96;100.00;100643.47;5202732;28;20033;-78
2021/12/31 05:19:46;;;;;;;4.30;2.35;;;;;;;13.01;100.00;100642.31;5207102;28;20027;-79
2021/12/31 05:22:16;;;;;;;4.40;2.50;;;;;;;13.06;100.00;100643.81;5226435;28;20153;-79
2021/12/31 05:24:46;;;;;;;4.57;2.50;;;;;;;13.11;100.00;100654.13;5229585;28;20028;-80
2021/12/31 05:27:16;;;;;;;4.22;2.65;;;;;;;13.06;100.00;100650.84;5228785;28;20029;-79
2021/12/31 05:29:47;;;;;;;3.50;2.20;;;;;;;13.04;100.00;100658.78;5230139;28;20483;-79
2021/12/31 05:32:17;;;;;;;9.57;2.63;;;;;;;13.13;100.00;100657.53;5229125;28;20036;-79
2021/12/31 05:34:47;;;;;;;5.47;2.10;;;;;;;13.08;100.00;100662.97;5229356;28;20382;-79
2021/12/31 05:37:17;;;;;;;4.22;2.20;;;;;;;13.10;100.00;100658.50;5221769;28;20025;-79
2021/12/31 05:39:48;;;;;;;3.90;2.20;;;;;;;13.08;100.00;100656.88;5231614;28;20031;-78
2021/12/31 05:42:18;;;;;;;6.97;2.10;;;;;;;13.12;100.00;100661.06;5229987;28;20037;-79
2021/12/31 05:44:49;;;;;;;5.50;2.70;;;;;;;13.14;100.00;100653.97;5230502;28;20025;-79
2021/12/31 05:47:19;;;;;;;4.28;2.15;;;;;;;13.12;100.00;100650.56;5229765;28;20031;-79
2021/12/31 05:49:50;;;;;;;4.63;1.73;;;;;;;13.25;100.00;100656.97;5212648;28;20105;-80
2021/12/31 05:52:21;;;;;;;3.83;1.95;;;;;;;13.21;100.00;100660.69;5226016;28;20020;-79
2021/12/31 05:54:51;;;;;;;4.82;1.85;;;;;;;13.21;100.00;100655.44;5229141;28;20028;-80
2021/12/31 05:57:21;;;;;;;5.82;1.85;;;;;;;13.22;100.00;100657.13;5228614;28;20106;-79
2021/12/31 05:59:52;;;;;;;3.20;1.70;;;;;;;13.19;100.00;100652.84;5230214;28;20081;-79
2021/12/31 06:02:22;;;;;;;4.30;1.92;;;;;;;13.15;100.00;100661.78;5229186;28;20515;-80
2021/12/31 06:04:52;;;;;;;4.38;1.70;;;;;;;13.14;100.00;100665.34;5228539;28;20024;-80
2021/12/31 06:07:22;;;;;;;1.98;1.27;;;;;;;13.20;100.00;100662.44;5221910;28;20236;-79
2021/12/31 06:09:53;;;;;;;2.97;1.47;;;;;;;13.19;100.00;100667.72;5208797;28;20119;-80
2021/12/31 06:12:24;;;;;;;4.00;1.58;;;;;;;13.20;100.00;100667.69;5228668;28;20305;-81
2021/12/31 06:14:58;;;;;;;3.63;1.33;;;;;;;13.24;100.00;100669.25;5224814;28;20059;-79
2021/12/31 06:17:29;;;;;;;3.40;1.50;;;;;;;13.30;100.00;100665.50;5222860;28;20031;-79
2021/12/31 06:19:59;;;;;;;4.38;1.30;;;;;;;13.18;100.00;100664.28;5224914;28;20495;-79
2021/12/31 06:22:31;;;;;;;3.80;1.30;;;;;;;13.12;100.00;100664.56;5226576;28;20141;-81
2021/12/31 06:25:02;;;;;;;2.95;1.17;;;;;;;13.20;100.00;100666.84;5229812;28;20668;-80
2021/12/31 06:27:32;;;;;;;5.10;1.33;;;;;;;13.32;100.00;100667.13;5229530;28;20037;-79
2021/12/31 06:30:04;;;;;;;3.00;1.33;;;;;;;13.33;100.00;100681.09;5227805;28;20086;-79
2021/12/31 06:32:34;;;;;;;2.58;1.40;;;;;;;13.24;100.00;100676.28;5228946;28;20414;-79
2021/12/31 06:35:05;;;;;;;1.92;1.00;;;;;;;13.27;100.00;100679.59;5229443;28;20037;-80
2021/12/31 06:37:36;;;;;;;3.20;1.30;;;;;;;13.30;100.00;100691.75;5229076;28;20021;-78
2021/12/31 06:40:07;;;;;;;5.85;1.35;;;;;;;13.28;100.00;100669.97;5228603;28;20029;-80
2021/12/31 06:42:38;;;;;;;2.85;1.15;;;;;;;13.20;100.00;100670.31;5210528;28;20043;-79
2021/12/31 06:45:08;;;;;;;4.10;1.10;;;;;;;13.37;100.00;100666.94;5225713;28;20490;-80
2021/12/31 06:47:39;;;;;;;2.17;1.20;;;;;;;13.35;100.00;100669.63;5225372;28;20107;-80
2021/12/31 06:50:09;;;;;;;3.30;1.25;;;;;;;13.36;100.00;100657.31;5221659;28;20021;-80
2021/12/31 06:52:40;;;;;;;2.10;1.08;;;;;;;13.40;100.00;100662.38;5228323;28;20282;-79
2021/12/31 06:55:10;;;;;;;3.22;1.20;;;;;;;13.34;100.00;100659.19;5228158;28;20048;-80
2021/12/31 06:57:41;;;;;;;5.20;1.02;;;;;;;13.40;100.00;100651.03;5228679;28;20021;-80
2021/12/31 07:00:11;;;;;;;3.72;1.20;;;;;;;13.44;100.00;100660.47;5228899;28;20048;-79
2021/12/31 07:02:42;;;;;;;3.90;1.20;;;;;;;13.49;100.00;100642.72;5210454;28;20596;-79
2021/12/31 07:05:12;;;;;;;2.40;1.10;;;;;;;13.45;100.00;100633.28;5228634;28;20028;-80
2021/12/31 07:07:42;;;;;;;2.78;1.15;;;;;;;13.34;100.00;100638.19;5227767;28;20059;-79
2021/12/31 07:10:13;;;;;;;1.75;0.70;;;;;;;13.32;100.00;100634.78;5227377;28;20028;-79
2021/12/31 07:12:43;;;;;;;4.55;1.20;;;;;;;13.37;100.00;100640.69;5228342;28;20021;-80
2021/12/31 07:15:13;;;;;;;1.95;0.90;;;;;;;13.40;100.00;100645.78;5228563;28;20032;-79
2021/12/31 07:17:43;;;;;;;2.55;0.85;;;;;;;13.42;100.00;100638.69;5227320;28;20032;-79
2021/12/31 07:20:14;;;;;;;5.70;2.72;;;;;;;13.32;100.00;100638.25;5221576;28;20029;-79
2021/12/31 07:22:44;;;;;;;10.40;4.68;;;;;;;13.37;100.00;100640.69;5227373;28;20031;-80
2021/12/31 07:25:15;;;;;;;9.82;5.07;;;;;;;13.36;100.00;100633.69;5227658;28;20067;-80
2021/12/31 07:27:50;;;;;;;7.32;3.10;;;;;;;13.38;100.00;100632.72;5227088;28;20025;-79
2021/12/31 07:30:20;;;;;;;6.28;3.40;;;;;;;13.28;100.00;100622.72;5220951;28;20293;-80
2021/12/31 07:32:51;;;;;;;4.70;1.40;;;;;;;13.38;100.00;100624.00;5230915;28;20036;-79
2021/12/31 07:35:21;;;;;;;2.53;0.80;;;;;;;13.41;100.00;100626.50;5222790;28;20027;-80
2021/12/31 07:37:55;;;;;;;0.80;0.60;;;;;;;13.51;100.00;100625.13;5224467;28;20080;-79
2021/12/31 07:40:37;;;;;;;2.88;0.80;;;;;;;13.41;100.00;100611.56;5227900;28;20112;-80
2021/12/31 07:43:10;;;;;;;2.15;0.80;;;;;;;13.41;100.00;100615.97;5227080;28;20103;-80
2021/12/31 07:45:41;;;;;;;4.05;0.88;;;;;;;13.39;100.00;100613.41;5227817;28;20033;-80
2021/12/31 07:48:11;;;;;;;2.47;1.13;;;;;;;13.29;100.00;100616.53;5226099;28;20031;-80
2021/12/31 07:50:41;;;;;;;1.95;0.80;;;;;;;13.17;100.00;100603.97;5200404;28;20033;-80
2021/12/31 07:53:12;;;;;;;2.33;0.93;;;;;;;13.17;100.00;100617.97;5220270;28;20035;-80
2021/12/31 07:55:42;;;;;;;2.17;0.70;;;;;;;13.17;100.00;100617.09;5220888;28;20036;-80
2021/12/31 07:58:13;;;;;;;2.33;0.90;;;;;;;13.18;100.00;100616.16;5217236;28;20032;-80
2021/12/31 08:00:43;;;;;;;1.05;0.70;;;;;;;13.46;100.00;100614.00;5199334;28;20056;-80
2021/12/31 08:03:15;;;;;;;2.55;0.85;;;;;;;13.76;100.00;100628.31;5219602;28;20033;-80
2021/12/31 08:05:45;;;;;;;1.85;0.70;;;;;;;14.42;100.00;100619.78;5211053;28;20030;-80
2021/12/31 08:08:15;;;;;;;1.55;0.80;;;;;;;14.83;100.00;100622.84;5209182;28;20118;-79
2021/12/31 08:10:46;;;;;;;2.63;0.73;;;;;;;15.40;100.00;100630.28;5208088;28;20033;-79
2021/12/31 08:13:16;;;;;;;2.28;0.70;;;;;;;15.89;98.12;100624.00;5218959;28;20090;-79
2021/12/31 08:15:46;;;;;;;1.40;0.60;;;;;;;16.16;94.91;100626.88;5215731;28;20027;-79
2021/12/31 08:18:17;;;;;;;1.23;0.57;;;;;;;16.19;93.16;100626.72;5216421;28;20302;-79
2021/12/31 08:20:47;;;;;;;1.20;0.50;;;;;;;15.70;94.70;100633.91;5219294;28;20058;-79
2021/12/31 08:23:18;;;;;;;1.95;0.70;;;;;;;14.99;100.00;100633.44;5223063;28;20036;-79
2021/12/31 08:25:48;;;;;;;2.40;0.70;;;;;;;14.66;100.00;100639.56;5223968;28;20020;-80
2021/12/31 08:28:19;;;;;;;2.70;0.60;;;;;;;14.49;100.00;100637.81;5219083;28;20033;-79
2021/12/31 08:30:49;;;;;;;3.03;0.90;;;;;;;14.21;100.00;100626.97;5224749;28;20079;-79
2021/12/31 08:33:19;;;;;;;1.63;0.60;;;;;;;13.96;100.00;100633.47;5223591;28;20382;-79
2021/12/31 08:35:50;;;;;;;3.72;0.80;;;;;;;13.95;100.00;100631.75;5223626;28;20031;-79
2021/12/31 08:38:20;;;;;;;2.42;0.63;;;;;;;13.98;100.00;100634.22;5222991;28;20037;-79
2021/12/31 08:40:50;;;;;;;2.10;0.52;;;;;;;14.13;100.00;100628.22;5218679;28;20793;-79
2021/12/31 08:43:21;;;;;;;1.50;0.55;;;;;;;14.22;100.00;100627.81;5229577;28;20084;-79
2021/12/31 08:45:51;;;;;;;3.03;0.90;;;;;;;14.10;100.00;100628.38;5225010;28;20041;-79
2021/12/31 08:48:21;;;;;;;1.98;0.80;;;;;;;13.97;100.00;100627.28;5215815;28;20036;-79
2021/12/31 08:50:51;;;;;;;1.77;0.57;;;;;;;14.06;100.00;100618.97;5219768;28;20029;-80
2021/12/31 08:53:22;;;;;;;2.42;0.80;;;;;;;13.97;100.00;100627.28;5206926;28;20130;-82
2021/12/31 08:55:52;;;;;;;1.58;0.80;;;;;;;13.97;100.00;100627.28;5222191;28;20032;-84
2021/12/31 08:58:22;;;;;;;2.00;0.70;;;;;;;13.92;100.00;100629.28;5222989;28;20021;-80
2021/12/31 09:00:53;;;;;;;1.53;0.70;;;;;;;13.97;100.00;100622.03;5223576;28;20418;-78
2021/12/31 09:03:23;;;;;;;1.52;0.65;;;;;;;13.95;100.00;100623.88;5222975;28;20302;-79
2021/12/31 09:05:53;;;;;;;6.35;1.80;;;;;;;14.02;100.00;100620.88;5217153;28;20614;-78
2021/12/31 09:08:24;;;;;;;1.75;0.75;;;;;;;14.00;100.00;100612.22;5211184;28;20021;-82
2021/12/31 09:10:54;;;;;;;4.10;0.70;;;;;;;14.06;100.00;100617.16;5216892;28;20024;-80
2021/12/31 09:13:26;;;;;;;4.28;1.20;;;;;;;14.05;100.00;100619.88;5219506;28;20024;-79
2021/12/31 09:15:57;;;;;;;1.70;0.70;;;;;;;14.15;100.00;100615.84;5222420;28;20029;-80
2021/12/31 09:18:27;;;;;;;2.53;1.05;;;;;;;14.40;100.00;100621.66;5221718;28;20504;-79
2021/12/31 09:20:57;;;;;;;1.75;0.90;;;;;;;14.38;100.00;100631.38;5223029;28;20037;-79
2021/12/31 09:23:28;;;;;;;2.73;1.17;;;;;;;14.36;100.00;100625.34;5228763;28;20028;-79
2021/12/31 09:26:01;;;;;;;3.83;1.40;;;;;;;14.32;100.00;100629.06;5221223;28;20780;-80
2021/12/31 09:28:31;;;;;;;2.28;1.10;;;;;;;14.31;100.00;100624.72;5215250;28;20033;-80
2021/12/31 09:31:03;;;;;;;2.70;1.13;;;;;;;14.14;100.00;100637.81;5218047;28;20075;-80
2021/12/31 09:33:34;;;;;;;3.15;1.17;;;;;;;13.96;100.00;100636.09;5221458;28;20045;-84
2021/12/31 09:36:04;;;;;;;2.15;1.20;;;;;;;13.79;100.00;100644.78;5221210;28;20078;-80
2021/12/31 09:38:34;;;;;;;2.92;1.30;;;;;;;13.76;100.00;100644.91;5208754;28;20029;-79
2021/12/31 09:41:05;;;;;;;2.40;1.05;;;;;;;13.67;100.00;100644.50;5216847;28;20043;-81
2021/12/31 09:43:38;;;;;;;3.25;1.23;;;;;;;13.55;100.00;100647.72;5203269;28;20048;-85
2021/12/31 09:46:11;;;;;;;1.58;0.93;;;;;;;13.51;100.00;100640.88;5221624;28;20040;-80
2021/12/31 09:48:41;;;;;;;4.35;1.10;;;;;;;13.52;100.00;100640.81;5220371;28;20040;-79
2021/12/31 09:51:12;;;;;;;1.77;0.93;;;;;;;13.57;100.00;100648.50;5219732;28;20029;-79
2021/12/31 09:53:44;;;;;;;2.70;1.10;;;;;;;13.52;100.00;100639.94;5222827;28;20063;-79
2021/12/31 09:56:14;;;;;;;3.97;1.00;;;;;;;13.58;100.00;100645.78;5214830;28;20469;-79
2021/12/31 09:58:45;;;;;;;1.77;1.00;;;;;;;13.49;100.00;100646.22;5220835;28;20059;-79
2021/12/31 10:01:15;;;;;;;1.90;0.90;;;;;;;13.58;100.00;100645.78;5221635;28;20494;-79
2021/12/31 10:03:56;;;;;;;2.58;0.93;;;;;;;13.52;100.00;100653.06;5220194;28;20091;-79
2021/12/31 10:06:26;;;;;;;1.48;0.80;;;;;;;13.49;100.00;100653.22;5223910;28;20032;-79
2021/12/31 10:09:02;;;;;;;3.28;0.95;;;;;;;13.52;100.00;100653.94;5222706;28;20040;-80
2021/12/31 10:11:33;;;;;;;4.25;0.80;;;;;;;13.53;100.00;100644.28;5221435;28;20029;-79
2021/12/31 10:14:05;;;;;;;3.38;0.90;;;;;;;13.44;100.00;100650.81;5219732;28;20453;-79
2021/12/31 10:16:35;;;;;;;3.50;1.20;;;;;;;13.34;100.00;100652.16;5213123;28;20056;-79
2021/12/31 10:19:14;;;;;;;4.57;1.10;;;;;;;13.32;100.00;100655.78;5219259;28;20114;-79
2021/12/31 10:21:50;;;;;;;1.27;0.70;;;;;;;13.42;100.00;100654.44;5215196;28;20042;-80
2021/12/31 10:24:25;;;;;;;4.07;0.90;;;;;;;13.32;100.00;100645.28;5220257;28;20021;-79
2021/12/31 10:26:57;;;;;;;2.03;0.90;;;;;;;13.24;100.00;100639.53;5219911;28;20478;-79
2021/12/31 10:29:28;;;;;;;1.52;0.70;;;;;;;13.28;100.00;100630.59;5220051;28;20040;-79
2021/12/31 10:31:58;;;;;;;1.92;0.77;;;;;;;13.22;100.00;100626.47;5220256;28;20109;-79
2021/12/31 10:34:36;;;;;;;3.75;0.88;;;;;;;13.23;100.00;100627.34;5221844;28;20050;-79
2021/12/31 10:37:17;;;;;;;3.03;0.90;;;;;;;13.29;100.00;100612.16;5221253;28;20422;-79
2021/12/31 10:39:59;;;;;;;2.03;0.70;;;;;;;13.34;100.00;100617.16;5214027;28;20455;-79
2021/12/31 10:42:32;;;;;;;2.47;0.88;;;;;;;13.41;100.00;100616.81;5221609;28;20486;-79
2021/12/31 10:45:03;;;;;;;1.45;0.85;;;;;;;13.55;100.00;100630.16;5214553;28;20048;-79
2021/12/31 10:47:37;;;;;;;2.33;0.70;;;;;;;13.52;100.00;100618.94;5213497;28;20037;-79
2021/12/31 10:50:11;;;;;;;3.70;1.17;;;;;;;13.52;100.00;100616.31;5213917;28;20223;-79
2021/12/31 10:52:52;;;;;;;2.13;1.20;;;;;;;13.63;100.00;100608.78;5219572;28;20051;-79
2021/12/31 10:55:27;;;;;;;2.30;0.80;;;;;;;13.60;100.00;100616.81;5221284;28;20039;-79
2021/12/31 10:58:00;;;;;;;2.90;1.00;;;;;;;13.65;100.00;100618.31;5216696;28;20292;-79
2021/12/31 11:00:34;;;;;;;4.28;0.80;;;;;;;13.71;100.00;100610.13;5217757;28;20033;-79
2021/12/31 11:03:05;;;;;;;3.58;1.08;;;;;;;13.77;100.00;100614.25;5215681;28;20021;-79
2021/12/31 11:05:36;;;;;;;2.92;1.60;;;;;;;13.94;100.00;100616.91;5219625;28;20041;-87
2021/12/31 11:08:07;;;;;;;1.75;0.82;;;;;;;13.89;100.00;100611.88;5220806;28;20140;-84
2021/12/31 11:10:38;;;;;;;3.35;1.38;;;;;;;13.96;100.00;100605.41;5214768;28;20029;-79
2021/12/31 11:13:18;;;;;;;2.20;1.10;;;;;;;14.05;100.00;100604.13;5216487;28;20571;-79
2021/12/31 11:15:50;;;;;;;1.40;0.90;;;;;;;14.09;100.00;100595.97;5215318;28;20036;-80
2021/12/31 11:18:23;;;;;;;3.92;0.90;;;;;;;14.18;100.00;100599.97;5217215;28;20122;-79
2021/12/31 11:20:58;;;;;;;3.72;1.65;;;;;;;14.24;100.00;100605.78;5214035;28;20028;-79
2021/12/31 11:23:31;;;;;;;3.58;1.10;;;;;;;14.26;100.00;100603.91;5218505;28;20031;-80
2021/12/31 11:26:06;;;;;;;1.70;1.00;;;;;;;14.28;100.00;100601.22;5212578;28;20037;-80
2021/12/31 11:28:38;;;;;;;;;;;;;;;14.17;100.00;100601.75;5218706;28;20021;-79
2021/12/31 11:31:17;;;;;;;1.77;0.93;;;;;;;14.13;100.00;100609.84;5212184;28;19913;-79
2021/12/31 11:33:56;;;;;;;1.67;0.88;;;;;;;14.08;100.00;100603.97;5213616;28;20433;-79
2021/12/31 11:36:51;;;;;;;2.22;1.10;;;;;;;14.16;100.00;100600.06;5215991;28;20055;-79
2021/12/31 11:39:28;;;;;;;0.90;0.70;;;;;;;14.09;100.00;100595.16;5213424;28;20466;-79